EPWR

Copernicus Wrocław Airport

Wrocław, Poland
METAR EPWR 161200Z 15012KT CAVOK 22/05 Q1019
Observed Flight Rules
Oct-16 @ 12:00 UTC (12 minutes ago) Visual Flight Rules
Wind Visibility Clouds
150° at 12 knots 10,000+ meters
  • Clear skies
Temperatures Readings
Current 22°C / 72°F
Dewpoint 5°C / 41°F
Humidity 33%
Altimeter 30.09" Hg
Pressure 1019 hPa
Elevation 121
METAR EPWR 161200Z 15012KT CAVOK 22/05 Q1019
Observed Flight Rules
Oct-16 @ 12:00 UTC
(12 minutes ago)
VFR
Wind Visibility
150° at 12 knots 10,000+ meters
Clouds
  • Clear skies
Temperature Dewpoint
22°C / 72°F 5°C / 41°F
Humidity Altimeter Pressure
33% 30.09" Hg 1019 hPa